Time;durP1;ratioP1;P1;durP2;ratioP2;P2;SDS_P1;SDS_P2;PMS_P1;PMS_P2;Temp;Humidity;BMP_temperature;BMP_pressure;BME280_temperature;BME280_humidity;BME280_pressure;Samples;Min_cycle;Max_cycle;Signal;HPM_P1;HPM_P2
2023/05/17 00:00:44;;;;;;;5.50;1.90;;;9.70;99.90;;;;;;10507203;28;20967;-72
2023/05/17 00:05:44;;;;;;;4.03;1.70;;;9.80;99.90;;;;;;10493021;28;20229;-72
2023/05/17 00:10:45;;;;;;;5.13;1.80;;;10.00;99.90;;;;;;10519337;28;20233;-72
2023/05/17 00:15:45;;;;;;;4.17;2.13;;;10.10;99.90;;;;;;10518601;28;20298;-73
2023/05/17 00:20:46;;;;;;;5.07;1.67;;;10.20;99.90;;;;;;10518694;28;20226;-73
2023/05/17 00:25:47;;;;;;;5.23;1.57;;;10.20;99.90;;;;;;10497799;28;20339;-73
2023/05/17 00:30:47;;;;;;;6.67;1.80;;;10.30;99.90;;;;;;10517681;28;20222;-73
2023/05/17 00:35:48;;;;;;;5.77;2.00;;;10.20;99.90;;;;;;10495722;28;20210;-72
2023/05/17 00:40:49;;;;;;;5.23;1.50;;;10.20;99.90;;;;;;10518376;28;20222;-73
2023/05/17 00:45:50;;;;;;;6.87;1.83;;;10.10;99.90;;;;;;10515423;28;20223;-72
2023/05/17 00:50:52;;;;;;;3.37;1.87;;;10.10;99.90;;;;;;10517716;28;20305;-73
2023/05/17 00:55:54;;;;;;;5.67;2.13;;;10.00;99.90;;;;;;10513964;28;20308;-73
2023/05/17 01:01:02;;;;;;;4.97;1.90;;;9.80;99.90;;;;;;10513459;28;20765;-72
2023/05/17 01:06:04;;;;;;;5.70;2.30;;;9.70;99.90;;;;;;10517470;28;20214;-73
2023/05/17 01:11:41;;;;;;;5.77;2.30;;;9.60;99.90;;;;;;10502402;28;20797;-73
2023/05/17 01:16:52;;;;;;;4.47;2.37;;;9.40;99.90;;;;;;10516687;28;20313;-72
2023/05/17 01:22:07;;;;;;;4.27;2.13;;;9.40;99.90;;;;;;10512586;28;20222;-72
2023/05/17 01:27:13;;;;;;;6.80;2.27;;;9.30;99.90;;;;;;10507394;28;20383;-73
2023/05/17 01:32:15;;;;;;;4.53;1.90;;;9.10;99.90;;;;;;10490675;28;20229;-73
2023/05/17 01:37:16;;;;;;;5.83;2.50;;;9.00;99.90;;;;;;10520718;28;20308;-72
2023/05/17 01:42:25;;;;;;;5.23;2.10;;;8.90;99.90;;;;;;10506322;28;20228;-73
2023/05/17 01:47:48;;;;;;;6.10;2.23;;;8.90;99.90;;;;;;10507294;28;20323;-72
2023/05/17 01:52:52;;;;;;;4.63;2.20;;;8.80;99.90;;;;;;10489685;28;20304;-72
2023/05/17 01:57:56;;;;;;;4.40;2.30;;;8.70;99.90;;;;;;10512210;28;20235;-72
2023/05/17 02:02:56;;;;;;;8.10;2.60;;;8.60;99.90;;;;;;10516597;28;20231;-72
2023/05/17 02:07:57;;;;;;;4.37;2.47;;;8.50;99.90;;;;;;10511070;28;20214;-73
2023/05/17 02:12:57;;;;;;;5.43;2.50;;;8.40;99.90;;;;;;10493138;28;20332;-73
2023/05/17 02:17:58;;;;;;;6.57;2.70;;;8.40;99.90;;;;;;10511405;28;20221;-73
2023/05/17 02:22:58;;;;;;;4.00;2.40;;;8.30;99.90;;;;;;10514728;28;20229;-72
2023/05/17 02:28:05;;;;;;;4.23;2.50;;;8.20;99.90;;;;;;10509844;28;20579;-73
2023/05/17 02:33:06;;;;;;;6.43;2.43;;;8.20;99.90;;;;;;10512317;28;20287;-73
2023/05/17 02:38:06;;;;;;;3.77;2.50;;;8.20;99.90;;;;;;10516553;28;20242;-72
2023/05/17 02:43:07;;;;;;;5.57;2.57;;;8.10;99.90;;;;;;10510914;28;20221;-73
2023/05/17 02:48:08;;;;;;;4.67;2.20;;;8.10;99.90;;;;;;10495330;28;20223;-72
2023/05/17 02:53:08;;;;;;;7.43;2.47;;;8.00;99.90;;;;;;10512059;28;20222;-73
2023/05/17 02:58:09;;;;;;;6.23;2.40;;;8.00;99.90;;;;;;10496603;28;20312;-73
2023/05/17 03:03:09;;;;;;;8.73;2.77;;;7.90;99.90;;;;;;10506599;28;20212;-73
2023/05/17 03:08:10;;;;;;;4.57;2.53;;;7.90;99.90;;;;;;10493336;28;20258;-73
2023/05/17 03:13:11;;;;;;;4.33;2.57;;;7.80;99.90;;;;;;10513360;28;20237;-73
2023/05/17 03:18:11;;;;;;;6.57;2.93;;;7.80;99.90;;;;;;10502692;28;20699;-73
2023/05/17 03:23:12;;;;;;;4.00;2.70;;;7.80;99.90;;;;;;10511927;28;20225;-73
2023/05/17 03:28:12;;;;;;;4.57;2.43;;;7.70;99.90;;;;;;10515179;28;20327;-72
2023/05/17 03:33:13;;;;;;;5.27;2.60;;;7.70;99.90;;;;;;10519227;28;20215;-72
2023/05/17 03:38:13;;;;;;;4.17;2.67;;;7.70;99.90;;;;;;10501736;28;20226;-73
2023/05/17 03:43:14;;;;;;;5.90;3.07;;;7.70;99.90;;;;;;10521358;28;20723;-73
2023/05/17 03:48:15;;;;;;;4.03;2.33;;;7.70;99.90;;;;;;10509486;28;20275;-72
2023/05/17 03:53:15;;;;;;;4.87;2.43;;;7.70;99.90;;;;;;10519964;28;20217;-72
2023/05/17 03:58:19;;;;;;;5.83;2.77;;;7.80;99.90;;;;;;10512234;28;20535;-72
2023/05/17 04:03:19;;;;;;;4.50;2.67;;;7.90;99.90;;;;;;10511445;28;20226;-72
2023/05/17 04:08:20;;;;;;;4.03;2.70;;;8.10;99.90;;;;;;10518735;28;20221;-72
2023/05/17 04:13:20;;;;;;;4.67;2.87;;;8.30;99.90;;;;;;10518307;28;20234;-73
2023/05/17 04:18:21;;;;;;;5.97;3.33;;;8.50;99.90;;;;;;10517862;28;20226;-73
2023/05/17 04:23:22;;;;;;;6.47;3.40;;;8.80;99.90;;;;;;10510934;28;20291;-73
2023/05/17 04:28:23;;;;;;;5.37;3.00;;;9.00;99.90;;;;;;10499846;28;20227;-73
2023/05/17 04:33:23;;;;;;;5.17;3.07;;;9.20;99.90;;;;;;10516361;28;20225;-73
2023/05/17 04:38:27;;;;;;;8.97;3.13;;;9.40;99.90;;;;;;10509606;28;20226;-74
2023/05/17 04:43:27;;;;;;;4.33;3.10;;;9.50;99.90;;;;;;10509827;28;20215;-72
2023/05/17 04:48:31;;;;;;;6.73;3.30;;;9.60;99.90;;;;;;10525534;28;20750;-73
2023/05/17 04:53:32;;;;;;;6.20;3.07;;;9.90;99.90;;;;;;10509542;28;20261;-73
2023/05/17 04:58:32;;;;;;;6.17;2.67;;;10.10;99.90;;;;;;10498089;28;20641;-73
2023/05/17 05:03:33;;;;;;;5.63;2.93;;;10.80;99.90;;;;;;10517008;28;20231;-73
2023/05/17 05:08:33;;;;;;;8.20;3.43;;;11.50;99.90;;;;;;10509049;28;20229;-74
2023/05/17 05:13:37;;;;;;;5.87;3.17;;;12.10;99.90;;;;;;10516169;28;20238;-72
2023/05/17 05:18:37;;;;;;;4.97;2.97;;;12.20;99.90;;;;;;10516467;28;20215;-73
2023/05/17 05:23:41;;;;;;;4.90;3.33;;;12.10;99.90;;;;;;10518046;28;20294;-73
2023/05/17 05:28:41;;;;;;;9.10;3.50;;;11.90;99.90;;;;;;10518906;28;20230;-73
2023/05/17 05:33:42;;;;;;;6.40;3.70;;;11.80;99.90;;;;;;10517804;28;20619;-73
2023/05/17 05:38:42;;;;;;;8.60;3.97;;;11.90;99.90;;;;;;10510659;28;20614;-73
2023/05/17 05:43:43;;;;;;;5.30;3.50;;;14.00;99.90;;;;;;10494347;28;20246;-73
2023/05/17 05:48:44;;;;;;;6.33;3.53;;;17.40;99.90;;;;;;10514273;28;20214;-73
2023/05/17 05:53:44;;;;;;;8.03;4.00;;;20.30;97.00;;;;;;10515880;28;20210;-73
2023/05/17 05:58:45;;;;;;;6.87;3.23;;;22.20;84.30;;;;;;10497191;28;20698;-73
2023/05/17 06:03:45;;;;;;;6.70;4.43;;;23.20;74.00;;;;;;10494891;28;20330;-73
2023/05/17 06:08:46;;;;;;;5.50;3.60;;;24.20;67.70;;;;;;10517733;28;20763;-73
2023/05/17 06:13:50;;;;;;;7.60;3.90;;;25.40;59.70;;;;;;10497194;28;20274;-73
2023/05/17 06:18:50;;;;;;;4.50;3.10;;;26.20;55.90;;;;;;10506144;28;20291;-72
2023/05/17 06:23:51;;;;;;;9.30;3.73;;;25.90;53.00;;;;;;10511712;28;20292;-73
2023/05/17 06:28:52;;;;;;;9.00;3.37;;;25.00;52.40;;;;;;10513925;28;20230;-73
2023/05/17 06:33:52;;;;;;;6.27;3.30;;;24.20;55.30;;;;;;10509594;28;20225;-73
2023/05/17 06:38:53;;;;;;;6.57;3.43;;;24.30;54.30;;;;;;10510262;28;20796;-73
2023/05/17 06:43:53;;;;;;;7.03;3.67;;;24.10;53.30;;;;;;10509991;28;20242;-72
2023/05/17 06:48:54;;;;;;;7.03;4.10;;;22.50;55.30;;;;;;10516902;28;20265;-72
2023/05/17 06:53:55;;;;;;;8.20;3.30;;;19.50;63.20;;;;;;10495604;28;20795;-73
2023/05/17 06:58:55;;;;;;;7.60;3.57;;;17.90;69.90;;;;;;10505272;28;20222;-73
2023/05/17 07:03:56;;;;;;;19.47;4.50;;;17.30;73.00;;;;;;10509657;28;20302;-74
2023/05/17 07:08:56;;;;;;;5.07;3.57;;;16.20;77.30;;;;;;10509459;28;20221;-74
2023/05/17 07:13:58;;;;;;;8.37;3.67;;;15.50;81.40;;;;;;10508651;28;20336;-73
2023/05/17 07:18:58;;;;;;;8.40;3.67;;;15.20;84.30;;;;;;10504452;28;20259;-73
2023/05/17 07:23:59;;;;;;;8.23;3.30;;;14.80;86.70;;;;;;10524046;28;21604;-73
2023/05/17 07:29:00;;;;;;;9.77;3.70;;;14.40;90.10;;;;;;10517280;28;20222;-72
2023/05/17 07:34:00;;;;;;;7.00;2.80;;;14.30;90.80;;;;;;10498728;28;20761;-73
2023/05/17 07:39:01;;;;;;;5.33;3.17;;;14.50;90.60;;;;;;10489649;28;20244;-74
2023/05/17 07:44:02;;;;;;;10.70;3.80;;;15.10;90.10;;;;;;10512277;28;20767;-74
2023/05/17 07:49:02;;;;;;;8.33;3.50;;;15.50;90.30;;;;;;10501666;28;20220;-74
2023/05/17 07:54:03;;;;;;;7.70;3.70;;;16.30;85.70;;;;;;10506868;28;20214;-73
2023/05/17 07:59:04;;;;;;;8.87;3.90;;;17.00;82.80;;;;;;10491303;28;20222;-74
2023/05/17 08:04:05;;;;;;;9.00;3.77;;;17.00;80.30;;;;;;10507160;28;20208;-73
2023/05/17 08:09:06;;;;;;;4.40;2.73;;;17.40;81.20;;;;;;10517416;28;20226;-73
2023/05/17 08:14:06;;;;;;;12.20;3.80;;;18.80;75.50;;;;;;10516884;28;20358;-73
2023/05/17 08:19:11;;;;;;;5.97;3.20;;;19.50;67.40;;;;;;10519902;28;20353;-74
2023/05/17 08:24:12;;;;;;;6.23;3.20;;;18.80;68.00;;;;;;10517689;28;20222;-74
2023/05/17 08:29:12;;;;;;;7.10;3.80;;;18.30;67.90;;;;;;10514806;28;20249;-74
2023/05/17 08:34:13;;;;;;;7.47;3.27;;;17.30;72.80;;;;;;10501335;28;20214;-73
2023/05/17 08:39:16;;;;;;;5.00;3.30;;;17.20;74.80;;;;;;10517068;28;20225;-73
2023/05/17 08:44:17;;;;;;;4.57;3.00;;;17.30;71.60;;;;;;10493242;28;20218;-72
2023/05/17 08:49:24;;;;;;;6.00;2.63;;;16.50;73.40;;;;;;10517017;28;20224;-74
2023/05/17 08:54:25;;;;;;;6.13;3.30;;;16.30;76.00;;;;;;10518382;28;20226;-73
2023/05/17 08:59:32;;;;;;;6.37;2.70;;;16.00;76.90;;;;;;10508471;28;20225;-74
2023/05/17 09:04:36;;;;;;;7.67;2.80;;;16.10;76.90;;;;;;10491778;28;20221;-73
2023/05/17 09:09:36;;;;;;;4.33;2.73;;;15.90;79.30;;;;;;10499192;28;20212;-73
2023/05/17 09:14:37;;;;;;;4.17;2.60;;;16.00;78.90;;;;;;10516283;28;20707;-73
2023/05/17 09:19:44;;;;;;;5.60;2.90;;;16.60;77.60;;;;;;10516484;28;20848;-73
2023/05/17 09:24:45;;;;;;;6.43;2.80;;;17.80;73.20;;;;;;10518563;28;20206;-73
2023/05/17 09:29:46;;;;;;;10.93;2.67;;;18.70;68.40;;;;;;10503061;28;20215;-74
2023/05/17 09:34:47;;;;;;;6.40;3.10;;;19.40;64.40;;;;;;10524765;28;20218;-72
2023/05/17 09:39:48;;;;;;;9.90;3.20;;;19.80;62.30;;;;;;10522796;28;20227;-73
2023/05/17 09:44:52;;;;;;;6.10;2.80;;;19.00;64.50;;;;;;10510369;28;20217;-73
2023/05/17 09:49:56;;;;;;;7.83;2.97;;;17.80;66.50;;;;;;10513310;28;20650;-74
2023/05/17 09:54:58;;;;;;;5.57;2.73;;;17.60;67.90;;;;;;10493648;28;20222;-72
2023/05/17 09:59:59;;;;;;;8.30;3.10;;;19.40;62.60;;;;;;10511610;28;20242;-73
2023/05/17 10:05:04;;;;;;;5.60;2.80;;;19.80;61.20;;;;;;10512326;28;20217;-74
2023/05/17 10:10:05;;;;;;;4.00;2.70;;;19.00;65.00;;;;;;10497897;28;20226;-73
2023/05/17 10:15:07;;;;;;;5.63;2.77;;;18.50;64.90;;;;;;10509506;28;20223;-73
2023/05/17 10:20:08;;;;;;;5.70;2.70;;;18.90;64.40;;;;;;10512830;28;20231;-73
2023/05/17 10:25:09;;;;;;;5.20;2.67;;;19.70;61.80;;;;;;10514543;28;20178;-73
2023/05/17 10:30:13;;;;;;;4.67;2.73;;;19.70;59.80;;;;;;10511580;28;20198;-73
2023/05/17 10:35:14;;;;;;;8.87;3.00;;;19.40;60.00;;;;;;10507943;28;20187;-74
2023/05/17 10:40:16;;;;;;;5.93;2.77;;;19.00;60.70;;;;;;10512436;28;20209;-73
2023/05/17 10:45:20;;;;;;;5.10;2.50;;;19.00;60.10;;;;;;10507377;28;20176;-73
2023/05/17 10:50:25;;;;;;;4.83;2.50;;;20.10;59.20;;;;;;10514160;28;20185;-73
2023/05/17 10:55:41;;;;;;;6.20;2.90;;;24.30;50.10;;;;;;10505177;28;20277;-73
2023/05/17 11:00:46;;;;;;;5.50;2.93;;;25.40;45.80;;;;;;10492969;28;20227;-74
2023/05/17 11:06:11;;;;;;;5.83;2.40;;;23.70;48.10;;;;;;10495476;28;20228;-73
2023/05/17 11:11:18;;;;;;;5.87;2.60;;;23.90;46.70;;;;;;10513647;28;20213;-74
2023/05/17 11:16:32;;;;;;;5.83;2.77;;;22.70;49.30;;;;;;10512613;28;20227;-73
2023/05/17 11:21:51;;;;;;;5.23;2.53;;;22.00;50.20;;;;;;10513506;28;20237;-73
2023/05/17 11:26:54;;;;;;;6.70;3.17;;;21.70;51.60;;;;;;10490366;28;20229;-72
2023/05/17 11:31:54;;;;;;;8.67;3.20;;;21.80;51.70;;;;;;10516716;28;20233;-73
2023/05/17 11:36:55;;;;;;;3.97;2.47;;;22.10;50.30;;;;;;10500499;28;20305;-73
2023/05/17 11:41:56;;;;;;;9.33;2.67;;;21.00;52.20;;;;;;10515559;28;20236;-74
2023/05/17 11:47:05;;;;;;;9.57;3.10;;;20.10;54.10;;;;;;10520479;28;20206;-74
2023/05/17 11:52:07;;;;;;;6.63;2.50;;;20.00;55.70;;;;;;10514830;28;20215;-72
2023/05/17 11:57:10;;;;;;;9.07;2.73;;;20.00;55.40;;;;;;10517495;28;20275;-73
2023/05/17 12:02:25;;;;;;;6.27;2.70;;;19.60;55.90;;;;;;10518801;28;20218;-74
2023/05/17 12:07:27;;;;;;;7.07;3.00;;;20.30;54.30;;;;;;10518827;28;20680;-73
2023/05/17 12:12:28;;;;;;;7.03;2.70;;;20.00;55.90;;;;;;10493344;28;20249;-73
2023/05/17 12:17:35;;;;;;;8.13;2.90;;;18.90;56.70;;;;;;10520957;28;20639;-74
2023/05/17 12:22:55;;;;;;;6.23;3.07;;;18.40;59.00;;;;;;10494233;28;20699;-73
2023/05/17 12:28:15;;;;;;;6.70;2.73;;;18.90;57.20;;;;;;10515210;28;20224;-74
2023/05/17 12:33:16;;;;;;;6.83;3.27;;;18.50;59.10;;;;;;10526139;28;20824;-73
2023/05/17 12:38:20;;;;;;;6.10;2.80;;;18.40;59.30;;;;;;10493715;28;20281;-73
2023/05/17 12:43:30;;;;;;;6.97;3.20;;;18.30;58.80;;;;;;10510895;28;20300;-74
2023/05/17 12:48:33;;;;;;;6.40;2.93;;;18.00;59.90;;;;;;10518281;28;20221;-73
2023/05/17 12:53:38;;;;;;;8.23;2.87;;;18.20;59.70;;;;;;10516920;28;20267;-74
2023/05/17 12:58:38;;;;;;;6.93;2.33;;;18.30;58.50;;;;;;10511127;28;20303;-72
2023/05/17 13:03:49;;;;;;;5.57;2.30;;;18.00;60.60;;;;;;10506443;28;20350;-73
2023/05/17 13:08:58;;;;;;;6.63;2.77;;;18.20;59.50;;;;;;10499300;28;20663;-74
2023/05/17 13:13:59;;;;;;;3.47;2.20;;;18.80;58.30;;;;;;10517834;28;20298;-73
2023/05/17 13:18:59;;;;;;;6.33;2.80;;;19.10;57.50;;;;;;10513639;28;20726;-74
2023/05/17 13:24:00;;;;;;;5.50;2.37;;;19.00;58.40;;;;;;10512512;28;20589;-73
2023/05/17 13:29:03;;;;;;;10.30;2.73;;;18.10;58.80;;;;;;10521757;28;20779;-74
2023/05/17 13:34:04;;;;;;;5.10;2.17;;;17.60;61.20;;;;;;10500927;28;20271;-74
2023/05/17 13:39:05;;;;;;;10.03;3.23;;;17.60;61.50;;;;;;10513757;28;20723;-73
2023/05/17 13:44:06;;;;;;;7.23;2.40;;;17.80;58.70;;;;;;10507793;28;20255;-74
2023/05/17 13:49:07;;;;;;;4.03;2.00;;;17.60;58.20;;;;;;10531780;28;20309;-73
2023/05/17 13:54:08;;;;;;;7.47;2.50;;;17.70;58.50;;;;;;10516083;28;20299;-74
2023/05/17 13:59:09;;;;;;;6.60;1.97;;;18.00;58.30;;;;;;10510288;28;20745;-74
2023/05/17 14:04:09;;;;;;;4.13;1.80;;;17.50;57.70;;;;;;10506919;28;20222;-72
2023/05/17 14:09:10;;;;;;;8.87;2.07;;;17.70;58.20;;;;;;10520690;28;20791;-73
2023/05/17 14:14:11;;;;;;;5.53;1.80;;;17.50;58.70;;;;;;10491255;28;20690;-73
2023/05/17 14:19:11;;;;;;;5.23;2.20;;;17.40;58.00;;;;;;10512892;28;20370;-73
2023/05/17 14:24:12;;;;;;;7.33;2.10;;;17.40;58.70;;;;;;10508325;28;20222;-72
2023/05/17 14:29:12;;;;;;;8.47;2.30;;;17.50;58.40;;;;;;10520384;28;20229;-73
2023/05/17 14:34:13;;;;;;;9.57;2.63;;;17.30;57.90;;;;;;10490686;28;20225;-73
2023/05/17 14:39:14;;;;;;;5.87;2.07;;;17.10;58.60;;;;;;10512731;28;20312;-74
2023/05/17 14:44:14;;;;;;;4.87;2.37;;;17.00;59.20;;;;;;10507661;28;20210;-73
2023/05/17 14:49:15;;;;;;;7.07;2.30;;;16.80;58.60;;;;;;10512579;28;20303;-73
2023/05/17 14:54:15;;;;;;;7.53;2.37;;;16.70;58.90;;;;;;10496292;28;20238;-73
2023/05/17 14:59:16;;;;;;;7.53;2.60;;;16.90;58.50;;;;;;10494725;28;20308;-73
2023/05/17 15:04:18;;;;;;;7.83;2.47;;;16.90;58.90;;;;;;10511532;28;20566;-74
2023/05/17 15:09:21;;;;;;;6.60;2.20;;;16.80;58.10;;;;;;10514931;28;20228;-73
2023/05/17 15:14:23;;;;;;;7.47;2.27;;;16.70;59.40;;;;;;10521253;28;20266;-74
2023/05/17 15:19:23;;;;;;;9.93;2.37;;;16.60;59.60;;;;;;10517331;28;20214;-74
2023/05/17 15:24:24;;;;;;;7.80;2.23;;;16.60;58.80;;;;;;10502868;28;20857;-74
2023/05/17 15:29:25;;;;;;;5.97;2.00;;;16.60;58.90;;;;;;10520511;28;20308;-73
2023/05/17 15:34:27;;;;;;;9.23;2.67;;;16.50;58.40;;;;;;10494007;28;20336;-73
2023/05/17 15:39:31;;;;;;;7.17;2.43;;;16.60;60.20;;;;;;10511718;28;20308;-73
2023/05/17 15:44:31;;;;;;;6.17;1.90;;;16.70;60.00;;;;;;10511876;28;20273;-74
2023/05/17 15:49:32;;;;;;;8.60;2.40;;;16.60;60.10;;;;;;10519134;28;20283;-74
2023/05/17 15:54:32;;;;;;;8.80;2.30;;;16.60;60.60;;;;;;10500800;28;20278;-73
2023/05/17 15:59:34;;;;;;;11.50;2.63;;;16.70;59.70;;;;;;10518713;28;20224;-73
2023/05/17 16:04:34;;;;;;;6.03;2.33;;;16.60;58.50;;;;;;10502437;28;20783;-73
2023/05/17 16:09:35;;;;;;;12.57;2.73;;;16.50;59.30;;;;;;10518252;28;20329;-74
2023/05/17 16:14:37;;;;;;;8.60;2.50;;;16.40;59.10;;;;;;10512021;28;20226;-73
2023/05/17 16:19:38;;;;;;;7.73;2.13;;;16.30;59.00;;;;;;10517884;28;20882;-74
2023/05/17 16:24:39;;;;;;;5.60;2.33;;;16.30;59.70;;;;;;10512424;28;20352;-74
2023/05/17 16:29:39;;;;;;;9.27;2.70;;;16.20;59.10;;;;;;10519496;28;20779;-72
2023/05/17 16:34:40;;;;;;;7.23;2.33;;;16.10;59.20;;;;;;10517234;28;20263;-73
2023/05/17 16:39:43;;;;;;;7.03;2.70;;;16.10;58.80;;;;;;10512102;28;20598;-74
2023/05/17 16:44:44;;;;;;;7.83;2.60;;;16.10;60.20;;;;;;10516331;28;20221;-74
2023/05/17 16:49:45;;;;;;;10.53;2.47;;;15.90;60.00;;;;;;10511838;28;20222;-72
2023/05/17 16:54:45;;;;;;;9.27;2.80;;;15.90;60.70;;;;;;10517530;28;20612;-74
2023/05/17 16:59:46;;;;;;;5.97;1.90;;;15.90;62.10;;;;;;10515129;28;20231;-73
2023/05/17 17:04:46;;;;;;;7.43;2.40;;;15.80;60.00;;;;;;10517191;28;20307;-73
2023/05/17 17:09:47;;;;;;;6.93;2.77;;;15.80;60.40;;;;;;10522252;28;20708;-73
2023/05/17 17:14:47;;;;;;;7.60;2.80;;;15.80;60.70;;;;;;10511404;28;20236;-72
2023/05/17 17:19:48;;;;;;;6.57;2.47;;;15.70;61.30;;;;;;10514218;28;20234;-73
2023/05/17 17:24:48;;;;;;;6.90;2.50;;;15.60;62.40;;;;;;10493260;28;20240;-72
2023/05/17 17:29:49;;;;;;;11.40;2.50;;;15.60;62.80;;;;;;10502173;28;20252;-74
2023/05/17 17:34:51;;;;;;;10.93;2.80;;;15.50;63.60;;;;;;10500245;28;20690;-72
2023/05/17 17:39:51;;;;;;;8.57;2.10;;;15.50;64.30;;;;;;10492338;28;20708;-75
2023/05/17 17:44:54;;;;;;;7.43;2.50;;;15.40;63.20;;;;;;10513916;28;20279;-73
2023/05/17 17:49:55;;;;;;;9.77;2.50;;;15.30;62.90;;;;;;10510952;28;20225;-74
2023/05/17 17:54:55;;;;;;;7.90;2.77;;;15.30;64.10;;;;;;10504384;28;20286;-72
2023/05/17 17:59:59;;;;;;;7.43;2.33;;;15.20;63.20;;;;;;10512141;28;20228;-73
2023/05/17 18:05:00;;;;;;;5.97;2.17;;;15.20;63.20;;;;;;10506903;28;20693;-73
2023/05/17 18:10:00;;;;;;;7.60;2.20;;;15.20;65.90;;;;;;10499112;28;20228;-73
2023/05/17 18:15:01;;;;;;;7.47;2.47;;;15.10;66.30;;;;;;10511528;28;20221;-73
2023/05/17 18:20:02;;;;;;;9.57;2.73;;;14.90;67.10;;;;;;10510235;28;20241;-73
2023/05/17 18:25:03;;;;;;;6.63;2.27;;;14.90;67.20;;;;;;10492069;28;20217;-74
2023/05/17 18:30:04;;;;;;;7.97;2.57;;;14.80;66.40;;;;;;10514613;28;20690;-73
2023/05/17 18:35:05;;;;;;;6.20;2.40;;;14.60;67.00;;;;;;10509149;28;20219;-73
2023/05/17 18:40:06;;;;;;;6.33;2.20;;;14.50;67.70;;;;;;10510114;28;20214;-73
2023/05/17 18:45:07;;;;;;;6.77;2.40;;;14.40;67.80;;;;;;10512764;28;20194;-74
2023/05/17 18:50:08;;;;;;;12.17;2.73;;;14.30;69.10;;;;;;10508937;28;20191;-73
2023/05/17 18:55:09;;;;;;;6.77;2.50;;;14.20;69.60;;;;;;10511559;28;20187;-73
2023/05/17 19:00:10;;;;;;;8.33;3.07;;;14.10;71.30;;;;;;10515336;28;20620;-72
2023/05/17 19:05:10;;;;;;;10.47;2.80;;;13.90;71.90;;;;;;10518936;28;20179;-73
2023/05/17 19:10:14;;;;;;;8.37;2.70;;;13.80;71.80;;;;;;10516641;28;20218;-74
2023/05/17 19:15:15;;;;;;;7.67;2.33;;;13.70;73.60;;;;;;10515073;28;20647;-73
2023/05/17 19:20:16;;;;;;;7.60;2.57;;;13.60;73.60;;;;;;10493084;28;20214;-73
2023/05/17 19:25:16;;;;;;;8.20;2.50;;;13.50;74.10;;;;;;10489645;28;20670;-73
2023/05/17 19:30:17;;;;;;;10.27;3.37;;;13.40;74.90;;;;;;10512376;28;20674;-73
2023/05/17 19:35:18;;;;;;;7.23;2.50;;;13.20;74.80;;;;;;10517173;28;20183;-72
2023/05/17 19:40:20;;;;;;;5.90;2.37;;;13.10;75.70;;;;;;10504312;28;20765;-73
2023/05/17 19:45:21;;;;;;;10.33;3.20;;;13.00;76.60;;;;;;10514037;28;20179;-73
2023/05/17 19:50:23;;;;;;;5.20;2.27;;;12.80;77.80;;;;;;10498521;28;20739;-73
2023/05/17 19:55:25;;;;;;;7.93;2.27;;;12.70;78.50;;;;;;10485822;28;20240;-74
2023/05/17 20:00:26;;;;;;;5.03;2.10;;;12.50;79.10;;;;;;10512247;28;20226;-73
2023/05/17 20:05:27;;;;;;;4.80;2.07;;;12.40;80.00;;;;;;10528807;28;20218;-73
2023/05/17 20:10:30;;;;;;;5.37;2.30;;;12.40;81.40;;;;;;10511941;28;20223;-72
2023/05/17 20:15:30;;;;;;;6.90;2.83;;;12.20;82.30;;;;;;10493800;28;20228;-73
2023/05/17 20:20:31;;;;;;;4.63;1.80;;;12.10;82.80;;;;;;10518750;28;20614;-73
2023/05/17 20:25:31;;;;;;;6.87;2.17;;;12.10;83.60;;;;;;10519475;28;20215;-76
2023/05/17 20:30:32;;;;;;;6.13;2.20;;;11.90;84.50;;;;;;10519021;28;20214;-73
2023/05/17 20:35:32;;;;;;;4.93;1.77;;;11.80;83.50;;;;;;10511163;28;20267;-72
2023/05/17 20:40:34;;;;;;;9.10;2.07;;;11.80;83.60;;;;;;10500076;28;20233;-73
2023/05/17 20:45:35;;;;;;;7.17;2.00;;;11.70;84.10;;;;;;10511230;28;20222;-72
2023/05/17 20:50:35;;;;;;;8.23;2.00;;;11.70;84.00;;;;;;10496974;28;20582;-73
2023/05/17 20:55:39;;;;;;;7.07;2.37;;;11.60;84.50;;;;;;10517571;28;20234;-73
2023/05/17 21:00:40;;;;;;;9.87;2.20;;;11.50;84.30;;;;;;10516775;28;20226;-73
2023/05/17 21:05:40;;;;;;;5.77;2.30;;;11.40;84.60;;;;;;10518157;28;20272;-72
2023/05/17 21:10:45;;;;;;;9.13;2.43;;;11.40;85.00;;;;;;10494271;28;20697;-74
2023/05/17 21:15:45;;;;;;;8.37;2.17;;;11.30;85.20;;;;;;10514933;28;20218;-73
2023/05/17 21:20:50;;;;;;;6.30;2.00;;;11.20;85.20;;;;;;10511656;28;20227;-74
2023/05/17 21:25:50;;;;;;;7.27;2.00;;;11.20;85.90;;;;;;10496187;28;20277;-74
2023/05/17 21:30:51;;;;;;;8.93;2.43;;;11.10;86.20;;;;;;10494860;28;20284;-73
2023/05/17 21:35:52;;;;;;;7.10;2.17;;;11.00;86.20;;;;;;10508307;28;20287;-73
2023/05/17 21:40:54;;;;;;;8.30;2.40;;;11.00;86.60;;;;;;10516729;28;20927;-73
2023/05/17 21:45:54;;;;;;;10.43;2.70;;;10.90;87.00;;;;;;10490096;28;20309;-72
2023/05/17 21:50:55;;;;;;;8.20;2.50;;;10.80;87.10;;;;;;10502654;28;20753;-73
2023/05/17 21:55:58;;;;;;;7.10;2.20;;;10.70;87.60;;;;;;10520568;28;20320;-73
2023/05/17 22:01:00;;;;;;;8.77;2.43;;;10.60;88.20;;;;;;10515344;28;20231;-71
2023/05/17 22:06:01;;;;;;;11.37;2.50;;;10.50;88.50;;;;;;10511662;28;20705;-72
2023/05/17 22:11:01;;;;;;;5.27;2.00;;;10.50;89.00;;;;;;10493139;28;20226;-74
2023/05/17 22:16:02;;;;;;;7.33;2.27;;;10.40;89.60;;;;;;10511154;28;20218;-73
2023/05/17 22:21:02;;;;;;;13.50;2.53;;;10.30;90.00;;;;;;10510527;28;20626;-73
2023/05/17 22:26:03;;;;;;;10.17;2.60;;;10.40;90.20;;;;;;10495635;28;20225;-73
2023/05/17 22:31:06;;;;;;;6.47;2.33;;;10.30;90.20;;;;;;10510245;28;20227;-72
2023/05/17 22:36:12;;;;;;;8.97;2.40;;;10.20;90.40;;;;;;10493069;28;20218;-73
2023/05/17 22:41:13;;;;;;;12.10;2.70;;;10.10;90.60;;;;;;10507425;28;20280;-73
2023/05/17 22:46:14;;;;;;;8.13;2.43;;;10.00;90.90;;;;;;10512023;28;20206;-73
2023/05/17 22:51:17;;;;;;;7.27;2.17;;;10.00;91.20;;;;;;10514198;28;20223;-73
2023/05/17 22:56:17;;;;;;;10.57;2.20;;;9.90;91.40;;;;;;10513503;28;20234;-73
2023/05/17 23:01:18;;;;;;;9.27;2.20;;;9.80;91.70;;;;;;10514201;28;20301;-73
2023/05/17 23:06:20;;;;;;;8.83;2.20;;;9.80;92.10;;;;;;10503279;28;20305;-73
2023/05/17 23:11:21;;;;;;;8.27;2.57;;;9.70;92.30;;;;;;10514049;28;20242;-72
2023/05/17 23:16:24;;;;;;;8.83;2.40;;;9.60;92.60;;;;;;10514200;28;20651;-72
2023/05/17 23:21:25;;;;;;;10.57;2.30;;;9.50;92.80;;;;;;10512724;28;20826;-72
2023/05/17 23:26:27;;;;;;;7.20;2.47;;;9.50;93.00;;;;;;10505644;28;20218;-74
2023/05/17 23:31:28;;;;;;;6.47;2.20;;;9.40;93.60;;;;;;10495064;28;20234;-72
2023/05/17 23:36:29;;;;;;;10.07;2.50;;;9.40;93.60;;;;;;10512778;28;20230;-73
2023/05/17 23:41:30;;;;;;;9.13;2.87;;;9.30;93.90;;;;;;10520996;28;20214;-72
2023/05/17 23:46:31;;;;;;;7.17;2.33;;;9.20;94.10;;;;;;10520826;28;20215;-72
2023/05/17 23:51:33;;;;;;;12.23;3.63;;;9.10;94.50;;;;;;10525886;28;20238;-73
2023/05/17 23:56:34;;;;;;;9.87;2.70;;;9.10;94.90;;;;;;10521082;28;20605;-73
